Time;durP1;ratioP1;P1;durP2;ratioP2;P2;SDS_P1;SDS_P2;PMS_P1;PMS_P2;Temp;Humidity;BMP_temperature;BMP_pressure;BME280_temperature;BME280_humidity;BME280_pressure;Samples;Min_cycle;Max_cycle;Signal;HPM_P1;HPM_P2
2021/06/05 00:01:58;;;;;;;1.73;0.60;;;19.80;74.40;;;;;;2272851;55;21016;-68
2021/06/05 00:04:27;;;;;;;2.10;0.75;;;19.80;74.50;;;;;;2301002;55;21001;-68
2021/06/05 00:06:56;;;;;;;1.23;0.60;;;19.80;74.60;;;;;;2296270;55;20938;-68
2021/06/05 00:09:22;;;;;;;3.12;0.90;;;19.80;74.70;;;;;;2278048;55;21040;-68
2021/06/05 00:11:48;;;;;;;1.83;0.60;;;19.80;74.70;;;;;;2291575;55;21055;-67
2021/06/05 00:14:15;;;;;;;1.48;0.60;;;19.80;74.70;;;;;;2293020;55;21000;-68
2021/06/05 00:16:46;;;;;;;1.95;0.80;;;19.80;74.70;;;;;;2295342;55;21037;-71
2021/06/05 00:19:12;;;;;;;2.92;0.70;;;19.90;74.90;;;;;;2293673;55;21025;-68
2021/06/05 00:21:40;;;;;;;2.15;0.70;;;19.80;74.80;;;;;;2291148;55;21042;-69
2021/06/05 00:24:08;;;;;;;2.60;0.80;;;19.90;74.90;;;;;;2278450;55;21004;-68
2021/06/05 00:26:34;;;;;;;2.47;0.80;;;19.80;74.80;;;;;;2291825;55;21009;-71
2021/06/05 00:29:00;;;;;;;1.48;0.60;;;19.90;74.90;;;;;;2374778;54;21537;-68
2021/06/05 00:31:27;;;;;;;2.83;0.82;;;19.90;74.90;;;;;;2299396;55;21040;-68
2021/06/05 00:33:53;;;;;;;1.23;0.60;;;19.90;74.90;;;;;;2291681;55;21636;-68
2021/06/05 00:36:20;;;;;;;1.85;0.60;;;19.90;74.90;;;;;;2297503;55;21806;-68
2021/06/05 00:38:46;;;;;;;1.27;0.60;;;19.90;74.90;;;;;;2298828;55;20997;-71
2021/06/05 00:44:40;;;;;;;2.20;0.70;;;19.90;74.60;;;;;;2483247;53;21874;-68
2021/06/05 00:47:06;;;;;;;1.62;0.70;;;19.90;74.70;;;;;;2294761;55;21030;-72
2021/06/05 00:49:32;;;;;;;1.90;0.70;;;19.90;74.70;;;;;;2295646;55;20973;-69
2021/06/05 00:52:01;;;;;;;2.00;0.52;;;19.90;74.80;;;;;;2438041;53;20980;-72
2021/06/05 00:54:27;;;;;;;1.65;0.77;;;19.90;74.90;;;;;;2393909;54;20941;-68
2021/06/05 00:56:57;;;;;;;1.90;0.70;;;19.80;75.00;;;;;;2291501;55;21127;-67
2021/06/05 00:59:23;;;;;;;2.05;0.80;;;19.80;75.00;;;;;;2291441;55;20957;-68
2021/06/05 01:01:52;;;;;;;3.53;0.95;;;19.90;75.20;;;;;;2297272;55;21008;-67
2021/06/05 01:04:18;;;;;;;2.22;1.00;;;19.80;75.10;;;;;;2519037;54;21017;-70
2021/06/05 01:07:23;;;;;;;2.00;0.80;;;19.90;75.20;;;;;;2291233;55;20972;-68
2021/06/05 01:10:00;;;;;;;2.53;1.00;;;19.90;75.30;;;;;;2292334;55;21001;-69
2021/06/05 01:19:23;;;;;;;2.20;0.90;;;19.90;75.40;;;;;;2303364;55;21069;-68
2021/06/05 01:22:28;;;;;;;2.37;0.80;;;19.90;75.30;;;;;;2297812;55;20990;-68
2021/06/05 01:25:04;;;;;;;;;;;19.90;74.60;;;;;;2296885;55;20970;-67
2021/06/05 01:27:32;;;;;;;1.87;0.90;;;19.90;74.00;;;;;;2293751;55;20072;-70
2021/06/05 01:29:59;;;;;;;1.48;0.73;;;19.90;75.00;;;;;;2290551;55;20997;-68
2021/06/05 01:32:41;;;;;;;1.85;0.75;;;19.90;75.20;;;;;;2264532;56;21861;-71
2021/06/05 01:35:07;;;;;;;2.03;0.90;;;19.90;75.30;;;;;;2456134;53;20950;-67
2021/06/05 01:37:37;;;;;;;2.20;1.00;;;19.90;75.60;;;;;;2300547;55;21110;-69
2021/06/05 01:40:04;;;;;;;3.33;1.37;;;19.90;75.80;;;;;;2294307;55;21034;-69
2021/06/05 01:42:33;;;;;;;2.85;1.20;;;19.90;75.80;;;;;;2294554;55;21418;-68
2021/06/05 01:44:59;;;;;;;2.42;1.12;;;19.90;75.80;;;;;;2292831;55;20984;-68
2021/06/05 01:47:56;;;;;;;2.40;1.10;;;19.90;75.90;;;;;;2285986;55;21001;-69
2021/06/05 01:50:24;;;;;;;3.58;1.20;;;19.90;75.70;;;;;;2301496;55;20985;-67
2021/06/05 01:52:51;;;;;;;2.30;1.30;;;19.90;75.90;;;;;;2295208;55;21649;-69
2021/06/05 01:55:28;;;;;;;4.37;1.15;;;19.90;75.90;;;;;;2300351;55;21006;-67
2021/06/05 01:57:59;;;;;;;3.35;1.20;;;19.90;75.90;;;;;;2524803;53;20974;-70
2021/06/05 02:00:34;;;;;;;4.05;1.35;;;19.90;75.80;;;;;;2293494;55;21032;-67
2021/06/05 02:03:00;;;;;;;3.58;1.12;;;19.90;75.80;;;;;;2295630;55;21913;-67
2021/06/05 02:05:28;;;;;;;2.67;1.20;;;19.90;75.90;;;;;;2443159;54;21061;-67
2021/06/05 02:07:55;;;;;;;2.42;1.30;;;19.90;75.90;;;;;;2284463;55;21455;-67
2021/06/05 02:10:23;;;;;;;2.92;1.00;;;19.90;75.90;;;;;;2295417;55;20997;-67
2021/06/05 02:12:49;;;;;;;2.17;0.88;;;19.90;75.90;;;;;;2297415;55;21064;-67
2021/06/05 02:15:39;;;;;;;2.80;0.80;;;20.00;76.10;;;;;;2284682;55;21771;-67
2021/06/05 02:18:08;;;;;;;1.87;0.82;;;20.00;76.00;;;;;;2295234;55;21094;-69
2021/06/05 02:20:39;;;;;;;4.12;1.10;;;20.00;76.10;;;;;;2299031;55;21497;-67
2021/06/05 02:26:34;;;;;;;2.00;0.90;;;20.00;76.00;;;;;;2348088;53;20922;-67
2021/06/05 02:29:12;;;;;;;3.33;0.90;;;20.00;76.10;;;;;;2279654;55;21099;-67
2021/06/05 02:31:38;;;;;;;2.62;1.00;;;20.00;76.00;;;;;;2303294;54;21524;-66
2021/06/05 02:34:09;;;;;;;2.42;1.17;;;20.00;76.00;;;;;;2294095;55;20974;-67
2021/06/05 02:36:39;;;;;;;2.03;0.80;;;20.10;76.10;;;;;;2291024;55;21017;-70
2021/06/05 02:39:06;;;;;;;2.67;1.17;;;20.00;76.00;;;;;;2295239;55;20981;-67
2021/06/05 02:41:34;;;;;;;2.15;0.90;;;20.00;76.00;;;;;;2302229;54;21021;-67
2021/06/05 02:44:00;;;;;;;2.03;0.85;;;20.00;75.90;;;;;;2292811;55;21021;-67
2021/06/05 02:46:34;;;;;;;1.50;0.70;;;20.00;76.00;;;;;;2294526;55;21049;-67
2021/06/05 02:49:23;;;;;;;2.60;1.00;;;20.00;75.90;;;;;;2297925;55;20982;-67
2021/06/05 02:51:54;;;;;;;1.65;0.80;;;20.00;76.00;;;;;;2295045;55;20970;-67
2021/06/05 02:54:21;;;;;;;3.35;0.90;;;20.00;76.00;;;;;;2294529;55;21016;-67
2021/06/05 02:56:50;;;;;;;4.37;0.80;;;20.00;76.10;;;;;;2289668;54;21020;-67
2021/06/05 02:59:16;;;;;;;1.98;0.80;;;20.00;76.10;;;;;;2289846;55;20967;-68
2021/06/05 03:01:42;;;;;;;1.50;0.73;;;20.00;76.10;;;;;;2296183;55;20932;-68
2021/06/05 03:04:09;;;;;;;1.83;0.88;;;20.00;76.20;;;;;;2404389;54;20989;-67
2021/06/05 03:06:35;;;;;;;2.70;0.90;;;20.00;76.30;;;;;;2285803;55;21361;-70
2021/06/05 03:09:01;;;;;;;1.55;0.55;;;20.00;76.30;;;;;;2291648;55;21409;-67
2021/06/05 03:11:27;;;;;;;2.70;0.77;;;20.10;76.50;;;;;;2299479;55;20973;-69
2021/06/05 03:13:54;;;;;;;1.60;0.57;;;20.10;76.60;;;;;;2291361;55;20954;-71
2021/06/05 03:16:20;;;;;;;2.10;0.80;;;20.10;76.60;;;;;;2299387;55;21009;-68
2021/06/05 03:19:17;;;;;;;1.70;0.70;;;20.10;76.60;;;;;;2322775;54;21064;-66
2021/06/05 03:21:43;;;;;;;1.58;0.65;;;20.10;76.30;;;;;;2298305;54;21391;-67
2021/06/05 03:24:10;;;;;;;1.65;0.70;;;20.10;76.40;;;;;;2299272;55;21030;-67
2021/06/05 03:26:36;;;;;;;2.05;0.80;;;20.10;76.40;;;;;;2379678;54;20949;-67
2021/06/05 03:29:03;;;;;;;2.20;0.88;;;20.10;76.40;;;;;;2413258;54;21097;-67
2021/06/05 03:31:29;;;;;;;1.62;0.70;;;20.20;76.40;;;;;;2293757;55;20949;-66
2021/06/05 03:33:56;;;;;;;2.12;0.88;;;20.10;76.30;;;;;;2300059;55;21037;-69
2021/06/05 03:36:23;;;;;;;3.58;0.80;;;20.10;76.30;;;;;;2519114;54;21041;-67
2021/06/05 03:38:49;;;;;;;1.98;0.82;;;20.10;77.00;;;;;;2286450;55;21104;-67
2021/06/05 03:41:18;;;;;;;1.77;0.75;;;20.10;76.20;;;;;;2323585;54;20930;-66
2021/06/05 03:43:44;;;;;;;2.05;0.82;;;20.20;76.20;;;;;;2380628;54;20938;-67
2021/06/05 03:46:10;;;;;;;1.52;0.70;;;20.10;76.10;;;;;;2294808;55;20946;-66
2021/06/05 03:48:37;;;;;;;1.92;0.57;;;20.10;76.10;;;;;;2294485;55;20941;-67
2021/06/05 03:51:03;;;;;;;2.00;0.70;;;20.10;76.10;;;;;;2296114;55;20937;-67
2021/06/05 03:53:29;;;;;;;1.60;0.65;;;20.10;76.10;;;;;;2288255;55;21431;-68
2021/06/05 03:56:27;;;;;;;1.80;0.80;;;20.10;76.10;;;;;;2298454;55;20954;-66
2021/06/05 03:58:53;;;;;;;2.35;0.80;;;20.10;75.80;;;;;;2301062;55;21904;-67
2021/06/05 04:01:21;;;;;;;1.40;0.73;;;20.10;76.10;;;;;;2295819;55;20994;-67
2021/06/05 04:03:48;;;;;;;2.47;0.77;;;20.10;76.20;;;;;;2278578;55;21001;-70
2021/06/05 04:06:15;;;;;;;3.08;0.80;;;20.10;76.20;;;;;;2295282;55;21554;-70
2021/06/05 04:08:41;;;;;;;1.62;0.73;;;20.10;76.20;;;;;;2295991;55;20990;-68
2021/06/05 04:11:07;;;;;;;1.90;0.70;;;20.10;76.20;;;;;;2298116;55;20964;-67
2021/06/05 04:13:34;;;;;;;2.08;0.90;;;20.10;76.30;;;;;;2294073;55;20981;-66
2021/06/05 04:16:00;;;;;;;1.83;0.90;;;20.10;76.30;;;;;;2290781;55;20953;-69
2021/06/05 04:18:36;;;;;;;4.28;1.05;;;20.10;76.20;;;;;;2517984;54;20992;-67
2021/06/05 04:21:24;;;;;;;3.05;1.25;;;20.10;76.30;;;;;;2288555;55;21062;-67
2021/06/05 04:23:50;;;;;;;2.10;1.00;;;20.10;76.00;;;;;;2291184;54;20962;-67
2021/06/05 04:26:17;;;;;;;2.35;0.93;;;20.10;76.40;;;;;;2502797;54;21028;-68
2021/06/05 04:28:43;;;;;;;2.00;0.80;;;20.10;76.50;;;;;;2281766;55;21014;-67
2021/06/05 04:31:09;;;;;;;1.55;0.70;;;20.10;76.70;;;;;;2283188;55;21006;-67
2021/06/05 04:33:36;;;;;;;2.40;0.88;;;20.10;76.90;;;;;;2294119;55;21036;-67
2021/06/05 04:36:06;;;;;;;2.22;0.90;;;20.10;77.00;;;;;;2290366;55;21077;-68
2021/06/05 04:38:32;;;;;;;2.28;0.90;;;20.10;77.10;;;;;;2267219;55;20969;-69
2021/06/05 04:40:58;;;;;;;2.15;0.80;;;20.10;77.20;;;;;;2291747;55;21065;-66
2021/06/05 04:43:24;;;;;;;1.90;0.80;;;20.20;77.40;;;;;;2293635;55;20929;-70
2021/06/05 04:45:51;;;;;;;2.53;0.93;;;20.20;77.50;;;;;;2281026;54;21020;-67
2021/06/05 04:48:18;;;;;;;2.37;1.00;;;20.20;77.60;;;;;;2293132;55;21341;-70
2021/06/05 04:50:45;;;;;;;1.65;0.88;;;20.20;77.70;;;;;;2296060;55;20945;-67
2021/06/05 04:53:11;;;;;;;2.30;1.00;;;20.20;77.80;;;;;;2298561;55;20977;-71
2021/06/05 04:55:38;;;;;;;3.20;0.90;;;20.20;77.80;;;;;;2282319;55;20968;-67
2021/06/05 04:58:04;;;;;;;2.30;0.80;;;20.20;77.90;;;;;;2531701;54;20941;-67
2021/06/05 05:00:42;;;;;;;3.20;0.93;;;20.30;78.10;;;;;;2296063;55;20979;-67
2021/06/05 05:03:09;;;;;;;2.85;1.20;;;20.30;78.10;;;;;;2291834;55;21873;-67
2021/06/05 05:05:36;;;;;;;2.15;0.90;;;20.30;78.20;;;;;;2303189;55;20929;-68
2021/06/05 05:08:20;;;;;;;2.58;1.00;;;20.40;78.30;;;;;;2285823;55;21001;-67
2021/06/05 05:10:50;;;;;;;1.75;0.80;;;20.40;78.10;;;;;;2283602;55;21005;-71
2021/06/05 05:13:22;;;;;;;2.10;0.90;;;20.50;78.40;;;;;;2301162;55;21081;-69
2021/06/05 05:16:28;;;;;;;2.05;0.80;;;20.50;78.40;;;;;;2294849;55;21017;-67
2021/06/05 05:18:56;;;;;;;2.50;1.00;;;20.50;78.20;;;;;;2292600;55;21034;-67
2021/06/05 05:21:22;;;;;;;2.20;0.90;;;20.60;78.70;;;;;;2366596;54;20973;-67
2021/06/05 05:23:49;;;;;;;2.12;0.88;;;20.60;78.70;;;;;;2301532;55;20994;-66
2021/06/05 05:26:15;;;;;;;3.05;0.90;;;20.60;78.70;;;;;;2293572;55;20993;-67
2021/06/05 05:28:42;;;;;;;4.78;1.20;;;20.60;78.70;;;;;;2297524;55;20944;-69
2021/06/05 05:31:35;;;;;;;2.15;1.00;;;20.70;78.70;;;;;;2292407;55;20940;-70
2021/06/05 05:34:01;;;;;;;1.70;0.90;;;20.80;78.20;;;;;;2300207;55;20988;-68
2021/06/05 05:36:31;;;;;;;4.55;0.90;;;20.80;78.40;;;;;;2291777;55;21042;-67
2021/06/05 05:38:57;;;;;;;3.12;0.70;;;20.80;78.10;;;;;;2458262;55;20931;-68
2021/06/05 05:41:26;;;;;;;2.28;0.88;;;20.90;78.00;;;;;;2298322;54;21011;-68
2021/06/05 05:43:52;;;;;;;1.98;0.90;;;20.90;77.80;;;;;;2281455;55;21001;-70
2021/06/05 05:46:18;;;;;;;2.72;1.02;;;20.90;77.70;;;;;;2283507;55;20937;-67
2021/06/05 05:48:45;;;;;;;2.35;0.80;;;20.90;77.50;;;;;;2300947;55;20958;-66
2021/06/05 05:51:14;;;;;;;2.12;0.90;;;20.90;77.60;;;;;;2293987;55;21042;-71
2021/06/05 05:53:40;;;;;;;8.30;1.02;;;21.00;77.80;;;;;;2263827;55;21862;-66
2021/06/05 05:59:46;;;;;;;2.08;0.73;;;21.10;77.30;;;;;;2317420;54;21470;-65
2021/06/05 06:02:12;;;;;;;2.08;0.98;;;21.10;77.70;;;;;;2291529;55;21495;-67
2021/06/05 06:04:38;;;;;;;1.37;0.70;;;21.10;77.70;;;;;;2300311;55;21053;-67
2021/06/05 06:07:06;;;;;;;1.87;0.75;;;21.10;77.80;;;;;;2295974;55;21202;-69
2021/06/05 06:09:32;;;;;;;1.60;0.77;;;21.10;77.80;;;;;;2278002;55;20995;-66
2021/06/05 06:12:05;;;;;;;3.58;0.80;;;21.10;77.90;;;;;;2295766;55;20953;-69
2021/06/05 06:14:31;;;;;;;2.10;0.80;;;21.20;78.00;;;;;;2295897;55;21022;-67
2021/06/05 06:16:57;;;;;;;2.00;0.77;;;21.20;78.20;;;;;;2285083;55;20999;-68
2021/06/05 06:19:23;;;;;;;16.48;1.73;;;21.30;78.30;;;;;;2276639;55;21258;-66
2021/06/05 06:21:50;;;;;;;2.42;0.80;;;21.30;78.20;;;;;;2522424;53;21714;-66
2021/06/05 06:24:17;;;;;;;2.50;0.90;;;21.30;78.00;;;;;;2295289;55;21814;-67
2021/06/05 06:30:11;;;;;;;2.97;0.80;;;21.40;77.40;;;;;;2299759;55;21009;-68
2021/06/05 06:32:38;;;;;;;2.75;0.88;;;21.50;78.00;;;;;;2294983;55;21143;-66
2021/06/05 06:35:05;;;;;;;2.00;0.80;;;21.50;78.00;;;;;;2297113;55;20957;-66
2021/06/05 06:37:31;;;;;;;2.62;1.00;;;21.50;78.10;;;;;;2320579;54;21589;-68
2021/06/05 06:39:57;;;;;;;2.78;1.10;;;21.60;78.20;;;;;;2292980;55;20927;-66
2021/06/05 06:42:23;;;;;;;2.28;0.93;;;21.60;78.20;;;;;;2296429;54;21014;-66
2021/06/05 06:44:50;;;;;;;2.00;0.95;;;21.60;78.20;;;;;;2523287;54;20997;-66
2021/06/05 06:47:22;;;;;;;2.33;1.00;;;21.60;78.20;;;;;;2512034;53;20985;-68
2021/06/05 06:49:48;;;;;;;;;;;21.70;78.00;;;;;;2303926;55;21351;-66
2021/06/05 06:52:14;;;;;;;2.50;1.00;;;21.70;77.00;;;;;;2287334;55;20161;-66
2021/06/05 06:54:41;;;;;;;2.00;1.00;;;21.70;78.20;;;;;;2290994;58;21788;-66
2021/06/05 06:57:08;;;;;;;4.55;1.20;;;21.80;78.40;;;;;;2509096;54;20958;-66
2021/06/05 06:59:34;;;;;;;2.12;1.10;;;21.80;78.30;;;;;;2282578;55;21482;-69
2021/06/05 07:02:00;;;;;;;2.65;1.00;;;21.80;78.00;;;;;;2295997;55;21621;-66
2021/06/05 07:04:26;;;;;;;2.35;1.00;;;21.90;78.00;;;;;;2503585;53;20982;-66
2021/06/05 07:06:52;;;;;;;2.12;1.00;;;21.90;77.80;;;;;;2287387;55;20980;-70
2021/06/05 07:09:19;;;;;;;3.35;0.95;;;21.90;77.80;;;;;;2447548;53;20990;-68
2021/06/05 07:11:45;;;;;;;2.55;1.30;;;21.90;77.90;;;;;;2301459;55;21456;-66
2021/06/05 07:14:14;;;;;;;1.83;0.90;;;22.00;78.10;;;;;;2291372;55;21068;-66
2021/06/05 07:16:41;;;;;;;2.97;1.37;;;22.00;77.90;;;;;;2414131;54;21053;-66
2021/06/05 07:19:08;;;;;;;2.55;0.93;;;22.00;77.90;;;;;;2418925;53;21622;-66
2021/06/05 07:21:39;;;;;;;2.47;1.10;;;22.10;78.10;;;;;;2293161;55;21041;-74
2021/06/05 07:24:29;;;;;;;4.62;1.15;;;22.20;77.00;;;;;;2276028;55;21082;-68
2021/06/05 07:26:56;;;;;;;2.80;1.00;;;22.20;75.70;;;;;;2304490;54;21081;-70
2021/06/05 07:29:22;;;;;;;2.70;1.00;;;22.20;76.90;;;;;;2291611;55;21006;-69
2021/06/05 07:31:52;;;;;;;3.00;0.85;;;22.20;77.10;;;;;;2292847;55;21040;-67
2021/06/05 07:34:23;;;;;;;2.28;1.10;;;22.20;77.10;;;;;;2295461;54;20945;-67
2021/06/05 07:36:53;;;;;;;2.55;1.10;;;22.20;76.80;;;;;;2296363;55;21018;-72
2021/06/05 07:39:24;;;;;;;2.10;0.90;;;22.30;77.00;;;;;;2276218;55;21486;-71
2021/06/05 07:42:33;;;;;;;2.12;0.88;;;22.30;77.20;;;;;;2406316;54;21068;-67
2021/06/05 07:45:00;;;;;;;2.25;0.98;;;22.30;76.80;;;;;;2293038;54;21017;-66
2021/06/05 07:47:27;;;;;;;1.85;0.77;;;22.40;76.90;;;;;;2299380;55;21122;-67
2021/06/05 07:49:54;;;;;;;1.45;0.60;;;22.40;77.10;;;;;;2421246;54;21002;-67
2021/06/05 07:52:23;;;;;;;2.55;0.80;;;22.40;77.00;;;;;;2506832;54;21076;-67
2021/06/05 07:55:20;;;;;;;1.65;0.85;;;22.50;77.20;;;;;;2291596;55;20945;-67
2021/06/05 07:57:49;;;;;;;2.40;1.05;;;22.50;76.10;;;;;;2297184;55;20914;-65
2021/06/05 08:00:18;;;;;;;2.97;1.00;;;22.50;76.00;;;;;;2394500;54;21858;-71
2021/06/05 08:02:44;;;;;;;2.72;0.90;;;22.50;75.60;;;;;;2280585;54;21457;-67
2021/06/05 08:05:12;;;;;;;2.35;1.10;;;22.50;75.20;;;;;;2295156;55;20985;-67
2021/06/05 08:07:39;;;;;;;1.42;0.70;;;22.40;75.20;;;;;;2294874;55;21091;-69
2021/06/05 08:10:06;;;;;;;2.97;0.70;;;22.40;75.40;;;;;;2289118;55;20958;-69
2021/06/05 08:12:38;;;;;;;2.60;0.80;;;22.40;75.50;;;;;;2521940;54;20948;-68
2021/06/05 08:15:05;;;;;;;;;;;22.40;75.10;;;;;;2281073;55;21032;-69
2021/06/05 08:17:34;;;;;;;1.55;0.68;;;22.40;74.60;;;;;;2291104;55;20084;-68
2021/06/05 08:20:19;;;;;;;1.95;0.82;;;22.40;75.70;;;;;;2294444;55;20933;-72
2021/06/05 08:22:46;;;;;;;1.98;0.80;;;22.30;74.40;;;;;;2294744;55;21119;-66
2021/06/05 08:25:13;;;;;;;2.87;1.00;;;22.30;75.10;;;;;;2292034;55;20934;-66
2021/06/05 08:27:39;;;;;;;2.92;0.93;;;22.30;74.90;;;;;;2302503;53;21340;-67
2021/06/05 08:30:27;;;;;;;2.08;0.77;;;22.20;74.70;;;;;;2292001;55;21606;-67
2021/06/05 08:32:53;;;;;;;3.78;0.90;;;22.20;74.10;;;;;;2303493;55;20962;-67
2021/06/05 08:35:19;;;;;;;2.35;1.00;;;22.10;74.50;;;;;;2290026;55;21037;-68
2021/06/05 08:37:46;;;;;;;3.75;1.10;;;22.10;74.50;;;;;;2294959;55;20958;-66
2021/06/05 08:40:14;;;;;;;2.50;1.10;;;22.10;74.30;;;;;;2297703;55;20975;-69
2021/06/05 08:42:48;;;;;;;2.33;0.95;;;22.00;74.70;;;;;;2281158;54;20966;-67
2021/06/05 08:45:20;;;;;;;2.28;0.80;;;22.00;74.70;;;;;;2293029;55;20941;-67
2021/06/05 08:47:47;;;;;;;;;;;21.90;74.70;;;;;;2288828;55;21298;-67
2021/06/05 08:50:40;;;;;;;1.50;0.70;;;21.90;74.00;;;;;;2299449;55;20120;-67
2021/06/05 08:53:16;;;;;;;1.65;0.70;;;21.90;74.70;;;;;;2296174;55;20962;-68
2021/06/05 08:55:56;;;;;;;2.03;0.80;;;21.90;74.90;;;;;;2330485;54;21024;-67
2021/06/05 08:58:46;;;;;;;1.50;0.70;;;21.90;75.00;;;;;;2295526;55;21042;-71
2021/06/05 09:04:31;;;;;;;1.85;0.50;;;21.90;75.50;;;;;;2323928;54;20969;-67
2021/06/05 09:07:00;;;;;;;1.45;0.68;;;22.00;76.10;;;;;;2300059;54;21065;-67
2021/06/05 09:09:34;;;;;;;2.25;0.90;;;22.00;76.50;;;;;;2296005;55;21847;-69
2021/06/05 09:12:11;;;;;;;1.77;0.70;;;22.00;76.30;;;;;;2522745;54;21041;-70
2021/06/05 09:14:41;;;;;;;1.73;0.75;;;22.10;76.70;;;;;;2287965;55;21693;-66
2021/06/05 09:17:33;;;;;;;1.80;0.80;;;22.10;76.70;;;;;;2295903;55;21789;-68
2021/06/05 09:20:15;;;;;;;2.25;0.70;;;22.20;75.80;;;;;;2295650;55;21152;-70
2021/06/05 09:22:43;;;;;;;1.42;0.60;;;22.20;76.00;;;;;;2297490;55;20989;-66
2021/06/05 09:25:55;;;;;;;1.42;0.60;;;22.20;76.20;;;;;;2291977;55;20988;-67
2021/06/05 09:28:46;;;;;;;1.30;0.50;;;22.30;75.20;;;;;;2292822;55;20950;-66
2021/06/05 09:31:19;;;;;;;1.45;0.60;;;22.30;74.40;;;;;;2296102;55;20994;-66
2021/06/05 09:33:46;;;;;;;1.25;0.45;;;22.40;75.70;;;;;;2281079;54;21015;-71
2021/06/05 09:36:31;;;;;;;1.37;0.60;;;22.40;75.70;;;;;;2298480;54;21014;-67
2021/06/05 09:39:00;;;;;;;1.80;0.55;;;22.40;75.40;;;;;;2294442;55;21001;-67
2021/06/05 09:41:39;;;;;;;1.90;0.60;;;22.40;75.80;;;;;;2290497;55;21036;-67
2021/06/05 09:44:26;;;;;;;1.15;0.60;;;22.50;75.30;;;;;;2293313;55;20950;-67
2021/06/05 09:47:30;;;;;;;1.30;0.70;;;22.50;74.80;;;;;;2287205;55;21050;-69
2021/06/05 09:50:23;;;;;;;1.00;0.50;;;22.60;74.50;;;;;;2296785;55;21001;-67
2021/06/05 09:52:49;;;;;;;1.45;0.70;;;22.60;75.10;;;;;;2274895;55;20990;-70
2021/06/05 09:55:28;;;;;;;1.20;0.50;;;22.60;76.20;;;;;;2296762;54;21781;-67
2021/06/05 09:57:55;;;;;;;2.53;0.60;;;22.70;74.40;;;;;;2292504;55;21914;-66
2021/06/05 10:00:34;;;;;;;1.33;0.50;;;22.70;75.70;;;;;;2280857;55;21073;-70
2021/06/05 10:03:19;;;;;;;1.67;0.60;;;22.80;75.20;;;;;;2329389;54;21714;-70
2021/06/05 10:05:50;;;;;;;2.35;0.77;;;22.90;74.90;;;;;;2294765;55;21017;-70
2021/06/05 10:08:37;;;;;;;1.90;0.60;;;23.00;75.30;;;;;;2293700;55;21853;-67
2021/06/05 10:11:46;;;;;;;1.48;0.65;;;23.00;73.60;;;;;;2299733;55;20949;-67
2021/06/05 10:14:14;;;;;;;2.15;0.60;;;23.00;72.60;;;;;;2286456;54;20981;-70
2021/06/05 10:16:43;;;;;;;1.50;0.62;;;23.00;73.10;;;;;;2280159;55;20963;-67
2021/06/05 10:19:23;;;;;;;1.65;0.60;;;23.00;73.80;;;;;;2276931;55;21075;-71
2021/06/05 10:21:49;;;;;;;1.02;0.47;;;23.00;73.70;;;;;;2295816;55;21413;-68
